createdAt,value
2022-10-25T00:00:22.245Z,101403.19
2022-10-25T00:03:09.045Z,101402.28
2022-10-25T00:05:56.797Z,101396.91
2022-10-25T00:08:43.503Z,101399.47
2022-10-25T00:11:38.268Z,101405.53
2022-10-25T00:14:26.744Z,101397.50
2022-10-25T00:17:13.510Z,101399.22
2022-10-25T00:20:00.221Z,101397.38
2022-10-25T00:22:49.359Z,101404.31
2022-10-25T00:25:36.528Z,101396.34
2022-10-25T00:28:23.232Z,101402.56
2022-10-25T00:31:19.737Z,101392.69
2022-10-25T00:34:06.476Z,101378.91
2022-10-25T00:36:53.225Z,101390.97
2022-10-25T00:39:39.937Z,101398.72
2022-10-25T00:42:26.964Z,101386.31
2022-10-25T00:45:17.904Z,101403.81
2022-10-25T00:48:18.280Z,101395.91
2022-10-25T00:51:09.469Z,101390.53
2022-10-25T00:53:57.592Z,101390.53
2022-10-25T00:56:50.771Z,101374.81
2022-10-25T00:59:44.556Z,101381.66
2022-10-25T01:02:31.936Z,101386.81
2022-10-25T01:05:18.985Z,101378.84
2022-10-25T01:08:05.905Z,101380.50
2022-10-25T01:10:52.815Z,101382.22
2022-10-25T01:13:39.649Z,101374.25
2022-10-25T01:16:55.933Z,101382.97
2022-10-25T01:20:01.073Z,101373.28
2022-10-25T01:23:00.011Z,101375.84
2022-10-25T01:25:52.483Z,101376.63
2022-10-25T01:29:11.157Z,101367.81
2022-10-25T01:32:03.819Z,101373.88
2022-10-25T01:35:01.369Z,101369.47
2022-10-25T01:38:01.545Z,101374.66
2022-10-25T01:41:23.304Z,101357.25
2022-10-25T01:44:28.315Z,101364.94
2022-10-25T01:47:26.741Z,101362.25
2022-10-25T01:50:19.620Z,101363.09
2022-10-25T01:53:06.377Z,101306.63
2022-10-25T01:56:16.345Z,101356.84
2022-10-25T01:59:30.359Z,101358.50
2022-10-25T02:02:25.962Z,101355.88
2022-10-25T02:05:27.700Z,101355.81
2022-10-25T02:08:26.879Z,101353.13
2022-10-25T02:11:16.879Z,101358.38
2022-10-25T02:14:23.109Z,101354.94
2022-10-25T02:17:16.779Z,101350.41
2022-10-25T02:20:18.232Z,101347.97
2022-10-25T02:23:06.174Z,101354.75
2022-10-25T02:25:54.851Z,101352.06
2022-10-25T02:28:45.452Z,101349.38
2022-10-25T02:31:37.492Z,101350.19
2022-10-25T02:34:24.932Z,101351.03
2022-10-25T02:37:15.580Z,101341.31
2022-10-25T02:40:03.544Z,101344.78
2022-10-25T02:42:50.291Z,101347.41
2022-10-25T02:45:37.164Z,101332.44
2022-10-25T02:48:24.037Z,101341.19
2022-10-25T02:51:10.815Z,101350.72
2022-10-25T02:53:57.604Z,101337.50
2022-10-25T02:56:44.688Z,101340.09
2022-10-25T02:59:32.211Z,101339.25
2022-10-25T03:02:19.004Z,101335.63
2022-10-25T03:05:05.700Z,101332.06
2022-10-25T03:07:52.389Z,101336.59
2022-10-25T03:10:39.092Z,101338.19
2022-10-25T03:13:25.884Z,101327.56
2022-10-25T03:16:12.820Z,101323.13
2022-10-25T03:18:59.533Z,101328.38
2022-10-25T03:21:46.768Z,101322.16
2022-10-25T03:24:33.480Z,101326.53
2022-10-25T03:27:20.246Z,101323.00
2022-10-25T03:30:06.929Z,101327.38
2022-10-25T03:32:53.657Z,101328.25
2022-10-25T03:35:40.818Z,101329.09
2022-10-25T03:38:27.535Z,101329.00
2022-10-25T03:41:14.241Z,101328.16
2022-10-25T03:44:00.931Z,101321.94
2022-10-25T03:46:47.749Z,101314.88
2022-10-25T03:49:34.539Z,101313.94
2022-10-25T03:52:21.299Z,101323.63
2022-10-25T03:55:08.030Z,101324.50
2022-10-25T03:57:54.948Z,101320.06
2022-10-25T04:00:41.917Z,101311.22
2022-10-25T04:03:29.616Z,101315.59
2022-10-25T04:06:16.300Z,101293.06
2022-10-25T04:09:03.006Z,101308.53
2022-10-25T04:11:49.708Z,101309.44
2022-10-25T04:14:36.509Z,101310.34
2022-10-25T04:17:23.291Z,101298.19
2022-10-25T04:20:10.057Z,101309.34
2022-10-25T04:22:56.772Z,101309.34
2022-10-25T04:25:45.187Z,101273.72
2022-10-25T04:28:31.912Z,101207.91
2022-10-25T04:31:19.090Z,101305.88
2022-10-25T04:34:12.538Z,101305.78
2022-10-25T04:36:59.295Z,101264.09
2022-10-25T04:39:46.064Z,101306.69
2022-10-25T04:42:32.843Z,101302.25
2022-10-25T04:45:20.073Z,101299.72
2022-10-25T04:48:06.982Z,101312.84
2022-10-25T04:50:53.813Z,101306.66
2022-10-25T04:53:40.852Z,101315.50
2022-10-25T04:56:30.703Z,101314.69
2022-10-25T04:59:19.460Z,101310.28
2022-10-25T05:02:06.145Z,101302.41
2022-10-25T05:04:52.848Z,101305.03
2022-10-25T05:07:40.139Z,101307.69
2022-10-25T05:10:26.984Z,101308.63
2022-10-25T05:13:14.712Z,101303.31
2022-10-25T05:16:01.477Z,101306.00
2022-10-25T05:18:49.948Z,101304.28
2022-10-25T05:21:37.948Z,101304.38
2022-10-25T05:24:24.819Z,101305.28
2022-10-25T05:27:11.511Z,101307.94
2022-10-25T05:29:58.255Z,101306.19
2022-10-25T05:32:45.336Z,101303.66
2022-10-25T05:35:32.262Z,101305.47
2022-10-25T05:38:18.966Z,101304.66
2022-10-25T05:41:13.091Z,101301.19
2022-10-25T05:44:00.522Z,101297.72
2022-10-25T05:46:47.393Z,101306.56
2022-10-25T05:49:34.115Z,101308.34
2022-10-25T05:52:20.812Z,101299.66
2022-10-25T05:55:07.504Z,101297.94
2022-10-25T05:57:54.238Z,101303.28
2022-10-25T06:00:41.138Z,101302.50
2022-10-25T06:03:28.752Z,101306.06
2022-10-25T06:06:20.382Z,101309.63
2022-10-25T06:09:07.899Z,101313.22
2022-10-25T06:11:56.696Z,101305.31
2022-10-25T06:14:43.465Z,101304.75
2022-10-25T06:17:32.212Z,101306.28
2022-10-25T06:20:18.903Z,101302.84
2022-10-25T06:23:08.052Z,101304.66
2022-10-25T06:25:57.231Z,101306.44
2022-10-25T06:28:43.966Z,101310.00
2022-10-25T06:31:35.623Z,101303.00
2022-10-25T06:34:23.319Z,101310.91
2022-10-25T06:37:10.103Z,101306.59
2022-10-25T06:39:56.804Z,101299.59
2022-10-25T06:42:44.944Z,101311.94
2022-10-25T06:45:31.887Z,101296.25
2022-10-25T06:48:18.656Z,101308.50
2022-10-25T06:51:05.442Z,101312.06
2022-10-25T06:53:52.451Z,101300.66
2022-10-25T06:56:39.224Z,101298.94
2022-10-25T06:59:27.076Z,101293.69
2022-10-25T07:02:13.896Z,101295.44
2022-10-25T07:05:00.632Z,101300.81
2022-10-25T07:07:47.625Z,101297.31
2022-10-25T07:10:34.673Z,101290.38
2022-10-25T07:13:21.380Z,101299.19
2022-10-25T07:16:08.353Z,101298.34
2022-10-25T07:18:55.893Z,101294.88
2022-10-25T07:21:43.253Z,101287.88
2022-10-25T07:24:30.042Z,101236.94
2022-10-25T07:27:16.840Z,101296.81
2022-10-25T07:30:03.628Z,101295.97
2022-10-25T07:32:50.451Z,101300.38
2022-10-25T07:35:46.702Z,101296.94
2022-10-25T07:38:43.856Z,101294.31
2022-10-25T07:41:30.910Z,101283.91
2022-10-25T07:44:21.381Z,101303.13
2022-10-25T07:47:10.763Z,101305.78
2022-10-25T07:49:57.493Z,101312.00
2022-10-25T07:52:44.220Z,101302.28
2022-10-25T07:55:30.944Z,101302.28
2022-10-25T07:58:21.690Z,101296.09
2022-10-25T08:01:08.709Z,101300.53
2022-10-25T08:03:56.104Z,101254.69
2022-10-25T08:06:44.347Z,101304.91
2022-10-25T08:09:38.310Z,101303.97
2022-10-25T08:12:25.638Z,101295.13
2022-10-25T08:15:12.383Z,101302.16
2022-10-25T08:17:59.144Z,101306.53
2022-10-25T08:21:01.789Z,101301.22
2022-10-25T08:23:49.200Z,101294.31
2022-10-25T08:26:37.032Z,101300.28
2022-10-25T08:29:24.247Z,101293.25
2022-10-25T08:32:10.925Z,101301.13
2022-10-25T08:34:57.626Z,101295.78
2022-10-25T08:37:44.596Z,101299.31
2022-10-25T08:40:45.041Z,101270.63
2022-10-25T08:43:48.409Z,101293.06
2022-10-25T08:46:51.678Z,101298.31
2022-10-25T08:49:47.668Z,101283.53
2022-10-25T08:52:56.213Z,101297.38
2022-10-25T08:56:11.481Z,101289.41
2022-10-25T08:59:15.420Z,101290.22
2022-10-25T09:02:09.501Z,101291.94
2022-10-25T09:04:56.276Z,101283.97
2022-10-25T09:08:32.712Z,101287.47
2022-10-25T09:11:40.888Z,101281.28
2022-10-25T09:14:53.846Z,101282.09
2022-10-25T09:18:05.383Z,101286.50
2022-10-25T09:21:01.933Z,101285.50
2022-10-25T09:23:52.606Z,101289.00
2022-10-25T09:27:01.716Z,101283.69
2022-10-25T09:29:54.960Z,101281.84
2022-10-25T09:32:58.316Z,101280.03
2022-10-25T09:35:51.033Z,101262.50
2022-10-25T09:38:43.521Z,101270.25
2022-10-25T09:41:38.302Z,101265.72
2022-10-25T09:44:35.839Z,101269.19
2022-10-25T09:47:31.713Z,101270.91
2022-10-25T09:50:34.757Z,101269.97
2022-10-25T09:53:27.261Z,101272.56
2022-10-25T09:55:56.695Z,101270.84
2022-10-25T09:58:25.175Z,101265.44
2022-10-25T10:00:54.389Z,101254.06
2022-10-25T10:03:22.816Z,101264.50
2022-10-25T10:05:57.691Z,101267.94
2022-10-25T10:08:25.261Z,101261.75
2022-10-25T10:10:54.311Z,101223.69
2022-10-25T10:13:29.795Z,101253.78
2022-10-25T10:16:00.838Z,101256.38
2022-10-25T10:18:32.706Z,101258.13
2022-10-25T10:21:11.461Z,101267.84
2022-10-25T10:23:44.166Z,101261.66
2022-10-25T10:26:18.111Z,101258.09
2022-10-25T10:28:46.845Z,101261.66
2022-10-25T10:31:14.471Z,101257.25
2022-10-25T10:33:47.208Z,101263.38
2022-10-25T10:36:26.739Z,101257.25
2022-10-25T10:38:54.917Z,101245.88
2022-10-25T10:41:24.305Z,101253.66
2022-10-25T10:43:51.990Z,101249.31
2022-10-25T10:46:24.833Z,101259.84
2022-10-25T10:48:57.517Z,101257.16
2022-10-25T10:51:45.420Z,101250.97
2022-10-25T10:54:22.941Z,101241.28
2022-10-25T10:56:58.986Z,101229.88
2022-10-25T10:59:35.945Z,101202.97
2022-10-25T11:02:41.778Z,101236.72
2022-10-25T11:05:20.521Z,101227.91
2022-10-25T11:08:13.523Z,101166.34
2022-10-25T11:10:40.355Z,101220.75
2022-10-25T11:13:14.519Z,101206.06
2022-10-25T11:15:59.627Z,101218.06
2022-10-25T11:18:47.912Z,101213.66
2022-10-25T11:21:32.955Z,101210.97
2022-10-25T11:24:08.224Z,101213.59
2022-10-25T11:26:56.209Z,101212.69
2022-10-25T11:29:58.767Z,101213.56
2022-10-25T11:32:55.694Z,101202.97
2022-10-25T11:35:49.925Z,101202.00
2022-10-25T11:38:48.144Z,101206.41
2022-10-25T11:41:42.171Z,101194.00
2022-10-25T11:44:28.150Z,101204.59
2022-10-25T11:47:07.197Z,101197.50
2022-10-25T11:49:54.706Z,101135.00
2022-10-25T11:52:42.155Z,101182.44
2022-10-25T11:55:34.136Z,101189.41
2022-10-25T11:58:16.769Z,101180.69
2022-10-25T12:01:06.202Z,101179.66
2022-10-25T12:03:54.225Z,101170.81
2022-10-25T12:06:39.655Z,101170.81
2022-10-25T12:09:19.893Z,101177.88
2022-10-25T12:11:53.149Z,101168.34
2022-10-25T12:14:32.257Z,101174.31
2022-10-25T12:17:01.940Z,101176.91
2022-10-25T12:19:32.419Z,101175.13
2022-10-25T12:22:03.967Z,101175.13
2022-10-25T12:24:36.776Z,101108.25
2022-10-25T12:27:04.339Z,101165.34
2022-10-25T12:29:38.489Z,101172.44
2022-10-25T12:32:14.729Z,101105.56
2022-10-25T12:34:49.254Z,101096.91
2022-10-25T12:37:24.352Z,101165.22
2022-10-25T12:40:11.376Z,101166.09
2022-10-25T12:43:07.236Z,101167.81
2022-10-25T12:45:57.461Z,101169.56
2022-10-25T12:49:12.318Z,101163.47
2022-10-25T12:52:09.310Z,101166.06
2022-10-25T12:55:15.865Z,101166.88
2022-10-25T12:58:20.539Z,101157.19
2022-10-25T13:01:18.716Z,101153.66
2022-10-25T13:04:14.224Z,101152.78
2022-10-25T13:07:05.440Z,101147.47
2022-10-25T13:09:54.508Z,101155.41
2022-10-25T13:12:44.304Z,101143.94
2022-10-25T13:15:38.512Z,101143.06
2022-10-25T13:18:27.492Z,101151.00
2022-10-25T13:21:16.759Z,101150.13
2022-10-25T13:24:03.474Z,101140.41
2022-10-25T13:26:52.528Z,101107.47
2022-10-25T13:33:46.725Z,101136.06
2022-10-25T13:36:33.477Z,101128.19
2022-10-25T13:39:24.831Z,101124.75
2022-10-25T13:42:12.117Z,101139.75
2022-10-25T13:45:13.306Z,101124.78
2022-10-25T13:48:02.738Z,101119.56
2022-10-25T13:50:55.495Z,101109.03
2022-10-25T13:54:00.084Z,101110.84
2022-10-25T13:56:49.637Z,101109.97
2022-10-25T13:59:56.473Z,101104.72
2022-10-25T14:02:43.400Z,101099.47
2022-10-25T14:05:30.994Z,101097.81
2022-10-25T14:08:36.652Z,101097.00
2022-10-25T14:11:54.495Z,101101.53
2022-10-25T14:14:51.396Z,101093.69
2022-10-25T14:18:04.187Z,101091.03
2022-10-25T14:20:52.495Z,101091.97
2022-10-25T14:23:43.644Z,101089.38
2022-10-25T14:26:34.908Z,101092.03
2022-10-25T14:29:37.644Z,101082.69
2022-10-25T14:32:32.529Z,101021.97
2022-10-25T14:35:19.223Z,101079.94
2022-10-25T14:38:06.048Z,101078.13
2022-10-25T14:40:52.777Z,100989.09
2022-10-25T14:44:01.439Z,101079.09
2022-10-25T14:46:56.068Z,101073.81
2022-10-25T14:49:43.909Z,101067.88
2022-10-25T14:52:30.769Z,101069.47
2022-10-25T14:55:26.157Z,101067.75
2022-10-25T14:58:13.189Z,101068.75
2022-10-25T15:01:00.303Z,101069.75
2022-10-25T15:03:49.667Z,101061.00
2022-10-25T15:06:38.419Z,101070.72
2022-10-25T15:12:32.432Z,101066.41
2022-10-25T15:15:54.291Z,101060.28
2022-10-25T15:18:48.639Z,101068.22
2022-10-25T15:21:39.904Z,101064.75
2022-10-25T15:24:32.591Z,101038.78
2022-10-25T15:27:23.960Z,101062.16
2022-10-25T15:30:10.653Z,101065.69
2022-10-25T15:32:57.447Z,101060.44
2022-10-25T15:35:46.813Z,101049.19
2022-10-25T15:38:54.300Z,101060.44
2022-10-25T15:41:40.263Z,101051.69
2022-10-25T15:44:26.958Z,101057.84
2022-10-25T15:47:13.713Z,101059.56
2022-10-25T15:50:00.428Z,101053.53
2022-10-25T15:52:47.940Z,100968.72
2022-10-25T15:55:39.369Z,101046.41
2022-10-25T15:58:26.100Z,101050.84
2022-10-25T16:01:12.865Z,101055.22
2022-10-25T16:03:59.667Z,101034.22
2022-10-25T16:06:46.370Z,101022.03
2022-10-25T16:09:33.196Z,101034.97
2022-10-25T16:12:20.052Z,101028.75
2022-10-25T16:15:09.049Z,101040.28
2022-10-25T16:17:55.828Z,101025.31
2022-10-25T16:20:50.452Z,101026.19
2022-10-25T16:23:37.305Z,101018.25
2022-10-25T16:26:24.225Z,100982.75
2022-10-25T16:29:11.728Z,100999.22
2022-10-25T16:31:58.479Z,101020.84
2022-10-25T16:34:45.192Z,101019.97
2022-10-25T16:37:31.908Z,101020.84
2022-10-25T16:40:18.663Z,101016.41
2022-10-25T16:43:05.565Z,101021.66
2022-10-25T16:45:59.573Z,101010.22
2022-10-25T16:48:46.267Z,101005.75
2022-10-25T16:51:34.989Z,101005.84
2022-10-25T16:54:24.222Z,101009.22
2022-10-25T16:57:11.195Z,100952.25
2022-10-25T16:59:57.905Z,101003.06
2022-10-25T17:02:44.616Z,101005.66
2022-10-25T17:05:44.045Z,101007.41
2022-10-25T17:08:30.736Z,101003.84
2022-10-25T17:11:17.423Z,100996.88
2022-10-25T17:14:04.335Z,101004.72
2022-10-25T17:16:51.137Z,100990.88
2022-10-25T17:19:37.874Z,101007.34
2022-10-25T17:22:24.686Z,100996.13
2022-10-25T17:25:11.398Z,101002.03
2022-10-25T17:27:58.276Z,100995.84
2022-10-25T17:30:44.997Z,100994.03
2022-10-25T17:33:31.687Z,100989.63
2022-10-25T17:36:18.423Z,100992.38
2022-10-25T17:39:05.753Z,100982.78
2022-10-25T17:41:52.511Z,100984.28
2022-10-25T17:44:39.194Z,100993.97
2022-10-25T17:47:25.996Z,100990.41
2022-10-25T17:50:12.778Z,100992.16
2022-10-25T17:52:59.540Z,100987.75
2022-10-25T17:55:47.804Z,100884.09
2022-10-25T17:58:34.556Z,100992.06
2022-10-25T18:01:25.757Z,100990.25
2022-10-25T18:04:13.941Z,100870.97
2022-10-25T18:07:00.702Z,100988.47
2022-10-25T18:09:47.394Z,100993.72
2022-10-25T18:12:34.090Z,100991.06
2022-10-25T18:15:20.816Z,100981.56
2022-10-25T18:18:07.553Z,100981.38
2022-10-25T18:20:54.531Z,100979.59
2022-10-25T18:23:41.225Z,100973.50
2022-10-25T18:26:29.592Z,100976.88
2022-10-25T18:29:17.899Z,100968.31
2022-10-25T18:32:04.592Z,100980.31
2022-10-25T18:34:51.681Z,100971.59
2022-10-25T18:37:38.362Z,100972.31
2022-10-25T18:40:26.395Z,100970.56
2022-10-25T18:43:13.087Z,100955.63
2022-10-25T18:45:59.931Z,100962.56
2022-10-25T18:48:47.776Z,100959.00
2022-10-25T18:51:34.486Z,100951.06
2022-10-25T18:54:22.387Z,100947.50
2022-10-25T18:57:09.197Z,100949.22
2022-10-25T18:59:55.917Z,100948.31
2022-10-25T19:02:42.846Z,100950.09
2022-10-25T19:05:29.659Z,100904.94
2022-10-25T19:07:56.839Z,100937.66
2022-10-25T19:10:23.853Z,100891.88
2022-10-25T19:12:51.660Z,100936.72
2022-10-25T19:15:18.426Z,100936.81
2022-10-25T19:17:45.342Z,100944.59
2022-10-25T19:20:12.187Z,100941.00
2022-10-25T19:22:39.048Z,100937.44
2022-10-25T19:25:06.042Z,100942.72
2022-10-25T19:27:32.904Z,100937.38
2022-10-25T19:29:59.680Z,100932.09
2022-10-25T19:32:26.511Z,100937.31
2022-10-25T19:34:53.242Z,100935.56
2022-10-25T19:37:20.044Z,100925.91
2022-10-25T19:39:47.845Z,100927.50
2022-10-25T19:42:14.966Z,100938.91
2022-10-25T19:44:41.691Z,100930.03
2022-10-25T19:47:08.763Z,100936.16
2022-10-25T19:49:35.535Z,100929.03
2022-10-25T19:52:02.472Z,100933.34
2022-10-25T19:54:29.230Z,100928.03
2022-10-25T19:56:56.010Z,100928.81
2022-10-25T19:59:22.773Z,100928.69
2022-10-25T20:01:49.673Z,100897.59
2022-10-25T20:04:16.638Z,100927.59
2022-10-25T20:06:43.393Z,100926.59
2022-10-25T20:09:10.361Z,100918.72
2022-10-25T20:11:37.193Z,100926.41
2022-10-25T20:14:04.620Z,100893.53
2022-10-25T20:16:31.744Z,100927.19
2022-10-25T20:19:19.991Z,100921.88
2022-10-25T20:22:06.739Z,100920.94
2022-10-25T20:24:53.500Z,100930.56
2022-10-25T20:27:40.234Z,100925.28
2022-10-25T20:30:27.284Z,100926.16
2022-10-25T20:33:14.175Z,100845.06
2022-10-25T20:36:02.805Z,100912.00
2022-10-25T20:38:50.497Z,100913.69
2022-10-25T20:41:40.455Z,100910.47
2022-10-25T20:44:27.288Z,100914.56
2022-10-25T20:47:14.564Z,100911.94
2022-10-25T20:50:01.267Z,100831.63
2022-10-25T20:53:05.444Z,100908.41
2022-10-25T20:55:54.668Z,100908.41
2022-10-25T20:58:42.577Z,100827.31
2022-10-25T21:01:30.011Z,100904.91
2022-10-25T21:04:25.810Z,100905.75
2022-10-25T21:07:22.813Z,100909.28
2022-10-25T21:10:09.548Z,100906.69
2022-10-25T21:12:56.232Z,100891.00
2022-10-25T21:15:42.982Z,100901.41
2022-10-25T21:18:29.709Z,100899.63
2022-10-25T21:21:20.978Z,100894.34
2022-10-25T21:24:08.400Z,100857.34
2022-10-25T21:26:55.183Z,100887.22
2022-10-25T21:29:41.892Z,100889.03
2022-10-25T21:32:28.735Z,100892.53
2022-10-25T21:35:15.424Z,100881.09
2022-10-25T21:38:02.132Z,100875.88
2022-10-25T21:40:48.845Z,100882.00
2022-10-25T21:43:35.554Z,100884.63
2022-10-25T21:46:26.464Z,100882.00
2022-10-25T21:49:13.827Z,100889.03
2022-10-25T21:52:00.541Z,100889.94
2022-10-25T21:54:47.619Z,100876.69
2022-10-25T21:57:34.370Z,100853.53
2022-10-25T22:00:21.070Z,100889.94
2022-10-25T22:03:07.827Z,100889.13
2022-10-25T22:05:54.587Z,100884.63
2022-10-25T22:08:41.298Z,100883.81
2022-10-25T22:11:35.344Z,100875.81
2022-10-25T22:14:24.207Z,100877.63
2022-10-25T22:17:10.914Z,100878.50
2022-10-25T22:19:57.610Z,100874.16
2022-10-25T22:22:44.328Z,100882.00
2022-10-25T22:25:31.028Z,100887.28
2022-10-25T22:28:17.723Z,100876.69
2022-10-25T22:31:04.760Z,100872.28
2022-10-25T22:33:52.167Z,100866.16
2022-10-25T22:36:40.826Z,100874.88
2022-10-25T22:39:28.992Z,100862.56
2022-10-25T22:42:15.675Z,100874.00
2022-10-25T22:45:02.436Z,100861.75
2022-10-25T22:47:49.355Z,100862.56
2022-10-25T22:50:36.260Z,100865.22
2022-10-25T22:53:22.981Z,100863.41
2022-10-25T22:56:17.761Z,100863.41
2022-10-25T22:59:12.908Z,100859.84
2022-10-25T23:01:59.691Z,100867.78
2022-10-25T23:04:46.447Z,100860.75
2022-10-25T23:07:33.171Z,100861.63
2022-10-25T23:10:19.848Z,100856.34
2022-10-25T23:13:07.461Z,100858.09
2022-10-25T23:15:54.136Z,100855.47
2022-10-25T23:18:40.973Z,100855.47
2022-10-25T23:21:33.548Z,100801.22
2022-10-25T23:24:20.647Z,100858.22
2022-10-25T23:27:07.367Z,100856.41
2022-10-25T23:29:54.145Z,100856.41
2022-10-25T23:32:40.863Z,100859.91
2022-10-25T23:35:27.692Z,100853.00
2022-10-25T23:38:14.486Z,100849.31
2022-10-25T23:41:05.800Z,100843.16
2022-10-25T23:43:53.195Z,100844.03
2022-10-25T23:46:39.884Z,100848.44
2022-10-25T23:49:26.575Z,100851.97
2022-10-25T23:52:13.276Z,100842.28
2022-10-25T23:55:00.053Z,100844.94
2022-10-25T23:57:46.978Z,100823.31
